Tenjinmaru No11 — JD3353 — position and weather

sailwx.info

Track history (hours):
 
Tides and Currents Weather Stations Pressure Air Temp Water Temp Dewpoint Dewpoint Depression Visibility Wind Speed Wind Dir Waves Ship Positions

Tenjinmaru No11

Last reported at 2015-May-22 22:20 UTC. Time now 2015-May-23 13:24 UTC.
Position N 34°37' E 134°55'.

Length 75 m; draft 4.2 m.

Type: Cargo ship. MMSI: 431003485.

Date/timePositionNaut miles runAvg speedWind from/ knotsBaromVisibWave heightAir tempDewpointWater temp
2015-May-22 22:20N 34°37' E 134°55'7 9.2
2015-May-22 21:33N 34°36' E 135°03'8 8.3
2015-May-22 20:34N 34°28' E 135°03'1410.4
2015-May-22 19:13N 34°14' E 134°59'290 9.0
2015-May-21 11:10N 35°26' E 140°42'  
2015-May-14 02:08N 35°44' E 140°56'811.1
2015-May-14 01:25N 35°37' E 140°52'1111.9
2015-May-14 00:30N 35°28' E 140°44'1111.7
2015-May-13 23:32N 35°20' E 140°35'2512.2
2015-May-13 21:29N 35°01' E 140°14'1311.8
2015-May-13 20:26N 34°55' E 140°01'1011.2
2015-May-13 19:31N 34°52' E 139°49'8 8.4
2015-May-13 18:32N 34°58' E 139°43'1010.4
2015-May-13 17:34N 35°08' E 139°45'1010.1
2015-May-13 16:33N 35°18' E 139°44'5 4.7
2015-May-13 15:33N 35°22' E 139°40'0 0.0
2015-May-13 14:33N 35°22' E 139°40'0 0.0
2015-May-13 13:33N 35°22' E 139°40'0 0.0
2015-May-13 12:34N 35°22' E 139°40'0 0.0
2015-May-13 11:28N 35°22' E 139°40'0 0.0
2015-May-13 10:33N 35°22' E 139°40'0 0.1
2015-May-13 09:34N 35°22' E 139°40'0 0.0
2015-May-13 08:33N 35°22' E 139°40'0 0.0
2015-May-13 07:34N 35°22' E 139°40'0 0.0
2015-May-13 06:31N 35°22' E 139°40'0 0.1
2015-May-13 05:32N 35°22' E 139°40'0 0.1
2015-May-13 04:33N 35°22' E 139°40'0 0.0
2015-May-13 03:33N 35°22' E 139°40'0 0.0
2015-May-13 02:29N 35°22' E 139°40'0 0.0
2015-May-13 01:33N 35°22' E 139°40'0 0.0
2015-May-13 00:33N 35°22' E 139°40'0 0.0
2015-May-12 23:33N 35°22' E 139°40'0 0.0
2015-May-12 22:31N 35°22' E 139°40'  
Track history (hours):
 
Tides and Currents Weather Stations Pressure Air Temp Water Temp Dewpoint Dewpoint Depression Visibility Wind Speed Wind Dir Waves Ship Positions

Tenjinmaru No11

Last reported at 2015-May-22 22:20 UTC. Time now 2015-May-23 13:24 UTC.
Position N 34°37' E 134°55'.

Length 75 m; draft 4.2 m.

Type: Cargo ship. MMSI: 431003485.

Date/timePositionNaut miles runAvg speedWind from/ knotsBaromVisibWave heightAir tempDewpointWater temp
2015-May-22 22:20N 34°37' E 134°55'7 9.2
2015-May-22 21:33N 34°36' E 135°03'8 8.3
2015-May-22 20:34N 34°28' E 135°03'1410.4
2015-May-22 19:13N 34°14' E 134°59'290 9.0
2015-May-21 11:10N 35°26' E 140°42'  
2015-May-14 02:08N 35°44' E 140°56'811.1
2015-May-14 01:25N 35°37' E 140°52'1111.9
2015-May-14 00:30N 35°28' E 140°44'1111.7
2015-May-13 23:32N 35°20' E 140°35'2512.2
2015-May-13 21:29N 35°01' E 140°14'1311.8
2015-May-13 20:26N 34°55' E 140°01'1011.2
2015-May-13 19:31N 34°52' E 139°49'8 8.4
2015-May-13 18:32N 34°58' E 139°43'1010.4
2015-May-13 17:34N 35°08' E 139°45'1010.1
2015-May-13 16:33N 35°18' E 139°44'5 4.7
2015-May-13 15:33N 35°22' E 139°40'0 0.0
2015-May-13 14:33N 35°22' E 139°40'0 0.0
2015-May-13 13:33N 35°22' E 139°40'0 0.0
2015-May-13 12:34N 35°22' E 139°40'0 0.0
2015-May-13 11:28N 35°22' E 139°40'0 0.0
2015-May-13 10:33N 35°22' E 139°40'0 0.1
2015-May-13 09:34N 35°22' E 139°40'0 0.0
2015-May-13 08:33N 35°22' E 139°40'0 0.0
2015-May-13 07:34N 35°22' E 139°40'0 0.0
2015-May-13 06:31N 35°22' E 139°40'0 0.1
2015-May-13 05:32N 35°22' E 139°40'0 0.1
2015-May-13 04:33N 35°22' E 139°40'0 0.0
2015-May-13 03:33N 35°22' E 139°40'0 0.0
2015-May-13 02:29N 35°22' E 139°40'0 0.0
2015-May-13 01:33N 35°22' E 139°40'0 0.0
2015-May-13 00:33N 35°22' E 139°40'0 0.0
2015-May-12 23:33N 35°22' E 139°40'0 0.0
2015-May-12 22:31N 35°22' E 139°40'  

Dump ship's entire track history